createdAt,value
2022-09-14T00:00:06.232Z,942.45
2022-09-14T00:05:03.064Z,942.53
2022-09-14T00:10:04.250Z,942.70
2022-09-14T00:15:02.981Z,942.74
2022-09-14T00:20:04.100Z,942.66
2022-09-14T00:25:03.044Z,942.41
2022-09-14T00:30:05.701Z,942.27
2022-09-14T00:35:03.024Z,942.49
2022-09-14T00:40:04.289Z,942.59
2022-09-14T00:45:03.006Z,942.39
2022-09-14T00:50:04.186Z,941.94
2022-09-14T00:55:02.986Z,941.57
2022-09-14T01:00:04.533Z,941.63
2022-09-14T01:05:02.981Z,942.45
2022-09-14T01:10:04.335Z,942.82
2022-09-14T01:15:03.025Z,942.94
2022-09-14T01:20:04.177Z,942.94
2022-09-14T01:25:03.043Z,943.02
2022-09-14T01:30:04.413Z,942.65
2022-09-14T01:35:03.108Z,942.49
2022-09-14T01:40:04.419Z,942.70
2022-09-14T01:45:04.123Z,942.59
2022-09-14T01:50:04.269Z,942.47
2022-09-14T01:55:03.035Z,942.53
2022-09-14T02:00:10.542Z,942.76
2022-09-14T02:05:03.103Z,942.84
2022-09-14T02:10:04.165Z,943.04
2022-09-14T02:15:02.976Z,943.00
2022-09-14T02:20:04.080Z,942.72
2022-09-14T02:25:02.903Z,942.61
2022-09-14T02:30:06.286Z,942.66
2022-09-14T02:35:02.983Z,942.65
2022-09-14T02:40:04.166Z,942.70
2022-09-14T02:45:02.964Z,942.68
2022-09-14T02:50:04.066Z,942.70
2022-09-14T02:55:02.943Z,942.76
2022-09-14T03:00:04.322Z,942.70
2022-09-14T03:05:02.959Z,942.68
2022-09-14T03:10:04.492Z,942.90
2022-09-14T03:15:02.934Z,942.86
2022-09-14T03:20:04.158Z,942.78
2022-09-14T03:25:03.021Z,942.68
2022-09-14T03:30:04.513Z,942.55
2022-09-14T03:35:02.970Z,942.39
2022-09-14T03:40:04.260Z,942.45
2022-09-14T03:45:03.035Z,942.37
2022-09-14T03:50:04.067Z,942.02
2022-09-14T03:55:02.943Z,942.10
2022-09-14T04:00:04.389Z,942.43
2022-09-14T04:05:03.006Z,942.53
2022-09-14T04:10:04.302Z,942.55
2022-09-14T04:15:02.942Z,942.68
2022-09-14T04:20:04.082Z,942.59
2022-09-14T04:25:02.945Z,942.53
2022-09-14T04:30:04.422Z,942.41
2022-09-14T04:35:02.911Z,941.76
2022-09-14T04:40:04.111Z,941.29
2022-09-14T04:45:03.011Z,941.13
2022-09-14T04:50:04.073Z,941.47
2022-09-14T04:55:04.044Z,941.29
2022-09-14T05:00:04.656Z,941.08
2022-09-14T05:05:02.930Z,941.13
2022-09-14T05:10:04.114Z,940.80
2022-09-14T05:15:02.929Z,941.19
2022-09-14T05:20:04.013Z,941.19
2022-09-14T05:25:02.891Z,941.41
2022-09-14T05:30:04.457Z,941.41
2022-09-14T05:35:02.923Z,941.31
2022-09-14T05:40:04.255Z,941.39
2022-09-14T05:45:02.935Z,941.59
2022-09-14T05:50:04.157Z,941.80
2022-09-14T05:55:02.943Z,941.78
2022-09-14T06:00:04.953Z,941.76
2022-09-14T06:05:02.995Z,941.84
2022-09-14T06:10:04.092Z,941.88
2022-09-14T06:15:05.168Z,941.76
2022-09-14T06:20:07.141Z,941.47
2022-09-14T06:25:02.893Z,941.68
2022-09-14T06:30:04.452Z,941.47
2022-09-14T06:35:02.933Z,941.35
2022-09-14T06:40:04.146Z,941.23
2022-09-14T06:45:02.889Z,940.92
2022-09-14T06:50:03.935Z,940.94
2022-09-14T06:55:02.957Z,941.21
2022-09-14T07:00:06.083Z,940.80
2022-09-14T07:05:02.981Z,940.90
2022-09-14T07:10:03.963Z,940.63
2022-09-14T07:15:03.079Z,940.84
2022-09-14T07:20:04.009Z,941.11
2022-09-14T07:25:02.972Z,941.66
2022-09-14T07:30:04.269Z,941.37
2022-09-14T07:35:04.092Z,941.19
2022-09-14T07:40:04.103Z,941.27
2022-09-14T07:45:02.928Z,941.43
2022-09-14T07:50:04.126Z,941.17
2022-09-14T07:55:02.863Z,941.39
2022-09-14T08:00:04.448Z,941.19
2022-09-14T08:05:02.919Z,941.35
2022-09-14T08:10:03.979Z,942.11
2022-09-14T08:15:02.990Z,941.78
2022-09-14T08:20:03.937Z,941.59
2022-09-14T08:25:02.975Z,941.35
2022-09-14T08:30:04.802Z,941.25
2022-09-14T08:35:02.953Z,941.09
2022-09-14T08:40:03.965Z,941.39
2022-09-14T08:45:06.301Z,941.94
2022-09-14T08:50:03.960Z,941.70
2022-09-14T08:55:03.037Z,941.43
2022-09-14T09:00:04.482Z,942.15
2022-09-14T09:05:02.967Z,942.23
2022-09-14T09:10:04.001Z,942.06
2022-09-14T09:15:02.892Z,942.21
2022-09-14T09:20:03.911Z,942.47
2022-09-14T09:25:03.034Z,942.63
2022-09-14T09:30:05.028Z,942.80
2022-09-14T09:35:02.962Z,942.72
2022-09-14T09:40:04.157Z,942.65
2022-09-14T09:45:04.413Z,942.84
2022-09-14T09:50:03.951Z,942.76
2022-09-14T09:55:03.053Z,943.14
2022-09-14T10:00:04.196Z,943.20
2022-09-14T10:05:02.925Z,943.21
2022-09-14T10:10:04.126Z,943.20
2022-09-14T10:15:02.939Z,943.21
2022-09-14T10:20:04.023Z,943.29
2022-09-14T10:25:02.955Z,943.25
2022-09-14T10:30:04.912Z,943.12
2022-09-14T10:35:02.875Z,943.18
2022-09-14T10:40:04.620Z,943.35
2022-09-14T10:45:02.891Z,943.47
2022-09-14T10:50:04.206Z,943.59
2022-09-14T10:55:02.893Z,943.29
2022-09-14T11:00:05.166Z,943.16
2022-09-14T11:05:02.942Z,943.21
2022-09-14T11:10:04.015Z,943.12
2022-09-14T11:15:02.898Z,943.61
2022-09-14T11:20:06.053Z,943.59
2022-09-14T11:25:02.983Z,943.02
2022-09-14T11:30:04.249Z,943.04
2022-09-14T11:35:03.007Z,943.06
2022-09-14T11:40:04.009Z,942.98
2022-09-14T11:45:02.882Z,943.20
2022-09-14T11:50:04.090Z,943.41
2022-09-14T11:55:02.892Z,943.14
2022-09-14T12:00:04.589Z,943.47
2022-09-14T12:05:03.195Z,943.98
2022-09-14T12:10:04.014Z,944.04
2022-09-14T12:15:02.911Z,944.67
2022-09-14T12:20:03.991Z,944.70
2022-09-14T12:25:02.989Z,944.80
2022-09-14T12:30:05.207Z,944.82
2022-09-14T12:35:02.973Z,944.72
2022-09-14T12:40:04.124Z,944.68
2022-09-14T12:45:03.010Z,944.53
2022-09-14T12:50:04.076Z,944.53
2022-09-14T12:55:02.904Z,944.43
2022-09-14T13:00:04.662Z,944.45
2022-09-14T13:05:02.896Z,944.55
2022-09-14T13:10:04.068Z,944.59
2022-09-14T13:15:02.929Z,944.68
2022-09-14T13:20:04.192Z,944.76
2022-09-14T13:25:02.995Z,945.00
2022-09-14T13:30:04.398Z,944.98
2022-09-14T13:35:02.917Z,944.90
2022-09-14T13:40:04.200Z,944.78
2022-09-14T13:45:03.006Z,944.94
2022-09-14T13:50:04.033Z,944.80
2022-09-14T13:55:03.119Z,944.65
2022-09-14T14:00:05.631Z,944.74
2022-09-14T14:05:02.908Z,944.74
2022-09-14T14:10:04.060Z,944.78
2022-09-14T14:15:02.932Z,944.92
2022-09-14T14:20:03.971Z,944.86
2022-09-14T14:25:13.164Z,944.76
2022-09-14T14:30:05.831Z,944.76
2022-09-14T14:35:02.931Z,944.55
2022-09-14T14:40:04.205Z,944.61
2022-09-14T14:45:04.104Z,944.65
2022-09-14T14:50:04.082Z,944.51
2022-09-14T14:55:03.001Z,944.45
2022-09-14T15:00:06.113Z,944.41
2022-09-14T15:05:03.012Z,944.37
2022-09-14T15:10:04.001Z,944.27
2022-09-14T15:15:02.918Z,944.29
2022-09-14T15:20:03.999Z,944.27
2022-09-14T15:25:03.006Z,944.25
2022-09-14T15:30:04.178Z,944.04
2022-09-14T15:35:03.094Z,943.63
2022-09-14T15:40:04.073Z,943.35
2022-09-14T15:45:02.873Z,943.70
2022-09-14T15:50:04.210Z,943.47
2022-09-14T15:55:02.951Z,943.47
2022-09-14T16:00:06.135Z,944.19
2022-09-14T16:05:02.962Z,943.88
2022-09-14T16:10:04.207Z,943.88
2022-09-14T16:15:02.990Z,943.59
2022-09-14T16:20:04.260Z,943.76
2022-09-14T16:25:02.917Z,943.82
2022-09-14T16:30:04.336Z,943.78
2022-09-14T16:35:07.364Z,943.76
2022-09-14T16:40:04.135Z,943.65
2022-09-14T16:45:02.991Z,943.61
2022-09-14T16:50:04.222Z,943.49
2022-09-14T16:55:03.013Z,943.66
2022-09-14T17:00:05.317Z,943.68
2022-09-14T17:05:02.940Z,943.70
2022-09-14T17:10:04.062Z,943.68
2022-09-14T17:15:02.966Z,943.66
2022-09-14T17:20:04.122Z,943.41
2022-09-14T17:25:02.973Z,943.61
2022-09-14T17:30:04.424Z,943.68
2022-09-14T17:35:02.903Z,943.47
2022-09-14T17:40:04.120Z,943.33
2022-09-14T17:45:03.023Z,943.41
2022-09-14T17:50:04.143Z,943.31
2022-09-14T17:55:03.143Z,943.12
2022-09-14T18:00:06.029Z,943.00
2022-09-14T18:05:02.935Z,943.14
2022-09-14T18:10:04.033Z,943.18
2022-09-14T18:15:02.938Z,943.27
2022-09-14T18:20:04.087Z,943.23
2022-09-14T18:25:02.899Z,943.08
2022-09-14T18:30:05.118Z,943.00
2022-09-14T18:35:02.904Z,942.94
2022-09-14T18:40:04.247Z,943.21
2022-09-14T18:45:02.998Z,943.65
2022-09-14T18:50:04.194Z,943.65
2022-09-14T18:55:02.935Z,943.70
2022-09-14T19:00:05.970Z,943.68
2022-09-14T19:05:02.901Z,943.51
2022-09-14T19:10:04.136Z,943.59
2022-09-14T19:15:02.957Z,943.49
2022-09-14T19:20:04.017Z,943.51
2022-09-14T19:25:03.013Z,943.63
2022-09-14T19:30:04.324Z,943.61
2022-09-14T19:35:02.929Z,943.65
2022-09-14T19:40:04.055Z,943.59
2022-09-14T19:45:02.905Z,943.74
2022-09-14T19:50:04.316Z,943.66
2022-09-14T19:55:03.009Z,943.65
2022-09-14T20:00:04.681Z,943.63
2022-09-14T20:05:02.965Z,943.61
2022-09-14T20:10:04.163Z,943.65
2022-09-14T20:15:02.901Z,943.82
2022-09-14T20:20:06.078Z,943.84
2022-09-14T20:25:02.991Z,943.86
2022-09-14T20:30:04.565Z,943.90
2022-09-14T20:35:02.943Z,943.80
2022-09-14T20:40:04.156Z,943.88
2022-09-14T20:45:02.918Z,943.98
2022-09-14T20:50:04.093Z,944.15
2022-09-14T20:55:03.003Z,944.23
2022-09-14T21:00:05.482Z,944.10
2022-09-14T21:05:02.960Z,943.94
2022-09-14T21:10:04.083Z,944.13
2022-09-14T21:15:02.919Z,944.21
2022-09-14T21:20:04.088Z,944.15
2022-09-14T21:25:02.991Z,944.25
2022-09-14T21:30:06.159Z,944.15
2022-09-14T21:35:02.928Z,944.04
2022-09-14T21:40:04.228Z,944.13
2022-09-14T21:45:03.001Z,944.29
2022-09-14T21:50:04.271Z,944.39
2022-09-14T21:55:02.976Z,944.29
2022-09-14T22:00:05.360Z,944.17
2022-09-14T22:05:02.968Z,944.31
2022-09-14T22:10:04.048Z,944.55
2022-09-14T22:15:03.038Z,944.65
2022-09-14T22:20:04.114Z,944.67
2022-09-14T22:25:02.983Z,944.72
2022-09-14T22:30:04.853Z,945.02
2022-09-14T22:35:02.963Z,945.16
2022-09-14T22:40:04.230Z,945.16
2022-09-14T22:45:02.940Z,945.22
2022-09-14T22:50:04.096Z,945.12
2022-09-14T22:55:02.943Z,945.25
2022-09-14T23:00:04.695Z,945.39
2022-09-14T23:05:02.935Z,945.43
2022-09-14T23:10:06.037Z,945.29
2022-09-14T23:15:02.873Z,945.49
2022-09-14T23:20:04.346Z,945.59
2022-09-14T23:25:03.034Z,945.57
2022-09-14T23:30:04.453Z,945.55
2022-09-14T23:35:03.029Z,945.69
2022-09-14T23:40:05.249Z,945.63
2022-09-14T23:45:02.914Z,945.67
2022-09-14T23:50:04.053Z,945.78
2022-09-14T23:55:02.988Z,945.94
